sensor_id;sensor_type;location;lat;lon;timestamp;pressure;altitude;pressure_sealevel;temperature;humidity
53041;BME280;39326;42.650;23.248;2022-08-25T00:01:35;92537.88;;;18.64;82.66
53041;BME280;39326;42.650;23.248;2022-08-25T00:04:05;92536.56;;;18.68;82.60
53041;BME280;39326;42.650;23.248;2022-08-25T00:06:31;92540.16;;;18.65;82.54
53041;BME280;39326;42.650;23.248;2022-08-25T00:08:57;92542.53;;;18.63;82.78
53041;BME280;39326;42.650;23.248;2022-08-25T00:11:26;92536.25;;;18.66;82.43
53041;BME280;39326;42.650;23.248;2022-08-25T00:13:54;92534.75;;;18.65;82.35
53041;BME280;39326;42.650;23.248;2022-08-25T00:16:22;92539.41;;;18.65;82.69
53041;BME280;39326;42.650;23.248;2022-08-25T00:18:55;92541.97;;;18.68;82.15
53041;BME280;39326;42.650;23.248;2022-08-25T00:21:23;92532.72;;;18.70;82.04
53041;BME280;39326;42.650;23.248;2022-08-25T00:23:49;92530.75;;;18.70;81.91
53041;BME280;39326;42.650;23.248;2022-08-25T00:26:15;92530.75;;;18.70;82.37
53041;BME280;39326;42.650;23.248;2022-08-25T00:28:42;92532.81;;;18.66;82.10
53041;BME280;39326;42.650;23.248;2022-08-25T00:31:12;92534.97;;;18.71;81.67
53041;BME280;39326;42.650;23.248;2022-08-25T00:33:38;92517.88;;;18.74;81.76
53041;BME280;39326;42.650;23.248;2022-08-25T00:36:04;92523.94;;;18.78;81.57
53041;BME280;39326;42.650;23.248;2022-08-25T00:38:30;92515.06;;;18.78;81.33
53041;BME280;39326;42.650;23.248;2022-08-25T00:40:56;92521.22;;;18.78;81.58
53041;BME280;39326;42.650;23.248;2022-08-25T00:46:06;92523.41;;;18.71;81.65
53041;BME280;39326;42.650;23.248;2022-08-25T00:48:32;92524.91;;;18.72;81.44
53041;BME280;39326;42.650;23.248;2022-08-25T00:50:59;92536.47;;;18.72;81.61
53041;BME280;39326;42.650;23.248;2022-08-25T00:53:24;92541.44;;;18.74;81.35
53041;BME280;39326;42.650;23.248;2022-08-25T00:55:50;92535.72;;;18.72;81.31
53041;BME280;39326;42.650;23.248;2022-08-25T00:58:20;92543.81;;;18.72;81.80
53041;BME280;39326;42.650;23.248;2022-08-25T01:00:48;92542.84;;;18.78;81.45
53041;BME280;39326;42.650;23.248;2022-08-25T01:03:17;92534.28;;;18.80;81.42
53041;BME280;39326;42.650;23.248;2022-08-25T01:05:43;92529.22;;;18.82;81.69
53041;BME280;39326;42.650;23.248;2022-08-25T01:08:09;92524.44;;;18.86;81.75
53041;BME280;39326;42.650;23.248;2022-08-25T01:10:38;92515.03;;;18.90;81.09
53041;BME280;39326;42.650;23.248;2022-08-25T01:13:18;92503.25;;;18.97;80.95
53041;BME280;39326;42.650;23.248;2022-08-25T01:15:46;92500.53;;;18.97;81.25
53041;BME280;39326;42.650;23.248;2022-08-25T01:18:14;92494.19;;;18.91;81.36
53041;BME280;39326;42.650;23.248;2022-08-25T01:20:40;92493.28;;;18.94;81.41
53041;BME280;39326;42.650;23.248;2022-08-25T01:23:06;92488.47;;;18.89;81.31
53041;BME280;39326;42.650;23.248;2022-08-25T01:25:43;92493.06;;;19.01;80.88
53041;BME280;39326;42.650;23.248;2022-08-25T01:28:10;92491.69;;;18.97;80.56
53041;BME280;39326;42.650;23.248;2022-08-25T01:30:35;92496.22;;;18.87;81.69
53041;BME280;39326;42.650;23.248;2022-08-25T01:33:06;92497.75;;;18.88;81.19
53041;BME280;39326;42.650;23.248;2022-08-25T01:35:32;92496.34;;;18.96;81.34
53041;BME280;39326;42.650;23.248;2022-08-25T01:37:59;92487.56;;;18.92;81.15
53041;BME280;39326;42.650;23.248;2022-08-25T01:40:25;92498.47;;;19.01;80.61
53041;BME280;39326;42.650;23.248;2022-08-25T01:45:35;92495.06;;;18.88;81.49
53041;BME280;39326;42.650;23.248;2022-08-25T01:48:02;92495.06;;;18.88;81.29
53041;BME280;39326;42.650;23.248;2022-08-25T01:50:28;92503.06;;;18.79;82.39
53041;BME280;39326;42.650;23.248;2022-08-25T01:53:21;92500.78;;;18.90;81.43
53041;BME280;39326;42.650;23.248;2022-08-25T01:55:43;92499.03;;;18.96;80.98
53041;BME280;39326;42.650;23.248;2022-08-25T01:58:28;92497.56;;;18.82;82.39
53041;BME280;39326;42.650;23.248;2022-08-25T02:00:55;92504.03;;;18.85;82.33
53041;BME280;39326;42.650;23.248;2022-08-25T02:03:22;92497.94;;;18.93;81.62
53041;BME280;39326;42.650;23.248;2022-08-25T02:05:49;92496.78;;;18.94;82.02
53041;BME280;39326;42.650;23.248;2022-08-25T02:08:15;92491.47;;;18.91;82.28
53041;BME280;39326;42.650;23.248;2022-08-25T02:10:42;92496.34;;;18.96;81.54
53041;BME280;39326;42.650;23.248;2022-08-25T02:13:08;92496.19;;;19.00;81.46
53041;BME280;39326;42.650;23.248;2022-08-25T02:15:38;92493.84;;;19.02;81.63
53041;BME280;39326;42.650;23.248;2022-08-25T02:18:03;92493.28;;;19.07;81.80
53041;BME280;39326;42.650;23.248;2022-08-25T02:20:29;92485.91;;;19.07;81.73
53041;BME280;39326;42.650;23.248;2022-08-25T02:22:54;92482.88;;;19.05;81.49
53041;BME280;39326;42.650;23.248;2022-08-25T02:25:20;92493.91;;;19.11;81.25
53041;BME280;39326;42.650;23.248;2022-08-25T02:27:46;92491.44;;;19.04;81.39
53041;BME280;39326;42.650;23.248;2022-08-25T02:30:12;92484.97;;;19.01;81.60
53041;BME280;39326;42.650;23.248;2022-08-25T02:32:38;92489.19;;;19.02;81.51
53041;BME280;39326;42.650;23.248;2022-08-25T02:35:05;92480.50;;;19.07;81.54
53041;BME280;39326;42.650;23.248;2022-08-25T02:37:31;92480.19;;;19.05;81.47
53041;BME280;39326;42.650;23.248;2022-08-25T02:39:56;92486.78;;;19.04;81.31
53041;BME280;39326;42.650;23.248;2022-08-25T02:42:22;92484.06;;;19.04;81.50
53041;BME280;39326;42.650;23.248;2022-08-25T02:44:49;92486.78;;;19.04;81.34
53041;BME280;39326;42.650;23.248;2022-08-25T02:47:14;92485.28;;;19.03;81.60
53041;BME280;39326;42.650;23.248;2022-08-25T02:49:40;92490.78;;;19.00;81.03
53041;BME280;39326;42.650;23.248;2022-08-25T02:52:06;92486.47;;;19.02;81.47
53041;BME280;39326;42.650;23.248;2022-08-25T02:54:32;92501.06;;;19.05;81.36
53041;BME280;39326;42.650;23.248;2022-08-25T02:56:58;92498.03;;;19.03;81.67
53041;BME280;39326;42.650;23.248;2022-08-25T02:59:24;92497.91;;;19.06;81.43
53041;BME280;39326;42.650;23.248;2022-08-25T03:01:49;92502.69;;;19.02;81.94
53041;BME280;39326;42.650;23.248;2022-08-25T03:04:15;92497.59;;;19.04;82.08
53041;BME280;39326;42.650;23.248;2022-08-25T03:06:40;92495.34;;;19.03;82.02
53041;BME280;39326;42.650;23.248;2022-08-25T03:09:06;92500.84;;;18.99;82.67
53041;BME280;39326;42.650;23.248;2022-08-25T03:11:32;92505.19;;;18.97;82.56
53041;BME280;39326;42.650;23.248;2022-08-25T03:13:57;92499.47;;;18.94;82.75
53041;BME280;39326;42.650;23.248;2022-08-25T03:16:23;92507.59;;;18.94;82.35
53041;BME280;39326;42.650;23.248;2022-08-25T03:18:49;92508.97;;;18.99;82.35
53041;BME280;39326;42.650;23.248;2022-08-25T03:21:15;92497.09;;;18.97;82.58
53041;BME280;39326;42.650;23.248;2022-08-25T03:23:41;92494.88;;;19.04;82.13
53041;BME280;39326;42.650;23.248;2022-08-25T03:26:08;92494.25;;;19.00;82.41
53041;BME280;39326;42.650;23.248;2022-08-25T03:28:52;92502.28;;;18.91;82.60
53041;BME280;39326;42.650;23.248;2022-08-25T03:31:24;92502.28;;;18.91;82.92
53041;BME280;39326;42.650;23.248;2022-08-25T03:33:50;92495.38;;;18.90;82.55
53041;BME280;39326;42.650;23.248;2022-08-25T03:36:16;92501.44;;;18.81;82.94
53041;BME280;39326;42.650;23.248;2022-08-25T03:38:41;92509.22;;;18.79;83.56
53041;BME280;39326;42.650;23.248;2022-08-25T03:41:21;92510.63;;;18.84;82.95
53041;BME280;39326;42.650;23.248;2022-08-25T03:43:48;92500.13;;;18.86;83.22
53041;BME280;39326;42.650;23.248;2022-08-25T03:46:23;92502.38;;;18.87;82.42
53041;BME280;39326;42.650;23.248;2022-08-25T03:48:50;92495.06;;;18.88;82.98
53041;BME280;39326;42.650;23.248;2022-08-25T03:51:43;92501.22;;;18.88;82.95
53041;BME280;39326;42.650;23.248;2022-08-25T03:54:11;92495.38;;;18.90;82.57
53041;BME280;39326;42.650;23.248;2022-08-25T03:56:37;92496.88;;;18.91;82.56
53041;BME280;39326;42.650;23.248;2022-08-25T03:59:02;92497.31;;;18.89;83.32
53041;BME280;39326;42.650;23.248;2022-08-25T04:01:28;92501.22;;;18.88;83.69
53041;BME280;39326;42.650;23.248;2022-08-25T04:03:53;92497.44;;;18.86;83.56
53041;BME280;39326;42.650;23.248;2022-08-25T04:06:19;92488.47;;;18.89;83.33
53041;BME280;39326;42.650;23.248;2022-08-25T04:08:45;92488.47;;;18.89;83.10
53041;BME280;39326;42.650;23.248;2022-08-25T04:11:20;92488.66;;;18.94;82.48
53041;BME280;39326;42.650;23.248;2022-08-25T04:13:46;92494.38;;;18.97;82.82
53041;BME280;39326;42.650;23.248;2022-08-25T04:16:14;92494.69;;;18.99;82.26
53041;BME280;39326;42.650;23.248;2022-08-25T04:18:41;92499.34;;;18.98;82.56
53041;BME280;39326;42.650;23.248;2022-08-25T04:21:08;92504.31;;;19.00;82.17
53041;BME280;39326;42.650;23.248;2022-08-25T04:23:35;92496.94;;;19.00;82.49
53041;BME280;39326;42.650;23.248;2022-08-25T04:26:06;92491.53;;;19.00;82.47
53041;BME280;39326;42.650;23.248;2022-08-25T04:28:31;92491.44;;;19.04;82.83
53041;BME280;39326;42.650;23.248;2022-08-25T04:30:57;92485.16;;;19.07;82.72
53041;BME280;39326;42.650;23.248;2022-08-25T04:35:49;92477.22;;;19.12;82.13
53041;BME280;39326;42.650;23.248;2022-08-25T04:38:14;92485.22;;;19.16;81.96
53041;BME280;39326;42.650;23.248;2022-08-25T04:40:40;92481.63;;;19.19;81.85
53041;BME280;39326;42.650;23.248;2022-08-25T04:43:05;92490.09;;;19.21;81.66
53041;BME280;39326;42.650;23.248;2022-08-25T04:45:36;92493.84;;;19.24;81.80
53041;BME280;39326;42.650;23.248;2022-08-25T04:48:02;92489.63;;;19.23;81.80
53041;BME280;39326;42.650;23.248;2022-08-25T04:50:27;92492.66;;;19.25;81.83
53041;BME280;39326;42.650;23.248;2022-08-25T04:52:53;92483.88;;;19.33;81.08
53041;BME280;39326;42.650;23.248;2022-08-25T04:55:19;92484.19;;;19.35;81.16
53041;BME280;39326;42.650;23.248;2022-08-25T04:57:44;92492.19;;;19.39;81.46
53041;BME280;39326;42.650;23.248;2022-08-25T05:00:10;92491.84;;;19.37;81.71
53041;BME280;39326;42.650;23.248;2022-08-25T05:02:36;92502.81;;;19.33;82.61
53041;BME280;39326;42.650;23.248;2022-08-25T05:05:01;92504.75;;;19.33;82.63
53041;BME280;39326;42.650;23.248;2022-08-25T05:07:28;92498.75;;;19.38;82.10
53041;BME280;39326;42.650;23.248;2022-08-25T05:09:54;92501.03;;;19.39;82.11
53041;BME280;39326;42.650;23.248;2022-08-25T05:12:19;92499.94;;;19.50;81.73
53041;BME280;39326;42.650;23.248;2022-08-25T05:14:44;92503.16;;;19.44;81.68
53041;BME280;39326;42.650;23.248;2022-08-25T05:17:10;92496.03;;;19.51;81.10
53041;BME280;39326;42.650;23.248;2022-08-25T05:19:35;92493.09;;;19.58;80.52
53041;BME280;39326;42.650;23.248;2022-08-25T05:22:01;92499.88;;;19.62;79.58
53041;BME280;39326;42.650;23.248;2022-08-25T05:24:26;92504.41;;;19.65;79.22
53041;BME280;39326;42.650;23.248;2022-08-25T05:26:52;92495.53;;;19.65;79.16
53041;BME280;39326;42.650;23.248;2022-08-25T05:29:18;92490.53;;;19.63;79.46
53041;BME280;39326;42.650;23.248;2022-08-25T05:31:43;92492.56;;;19.50;79.76
53041;BME280;39326;42.650;23.248;2022-08-25T05:34:09;92483.13;;;19.55;79.88
53041;BME280;39326;42.650;23.248;2022-08-25T05:36:36;92495.22;;;19.63;79.46
53041;BME280;39326;42.650;23.248;2022-08-25T05:39:07;92482.00;;;19.65;79.65
53041;BME280;39326;42.650;23.248;2022-08-25T05:41:33;92491.06;;;19.71;78.22
53041;BME280;39326;42.650;23.248;2022-08-25T05:43:58;92489.72;;;19.75;77.73
53041;BME280;39326;42.650;23.248;2022-08-25T05:46:24;92483.75;;;19.81;77.82
53041;BME280;39326;42.650;23.248;2022-08-25T05:48:50;92490.09;;;19.87;77.40
53041;BME280;39326;42.650;23.248;2022-08-25T05:51:17;92494.31;;;19.88;78.28
53041;BME280;39326;42.650;23.248;2022-08-25T05:53:45;92493.44;;;19.91;78.44
53041;BME280;39326;42.650;23.248;2022-08-25T05:56:12;92491.66;;;19.97;78.07
53041;BME280;39326;42.650;23.248;2022-08-25T05:58:41;92491.19;;;19.89;78.33
53041;BME280;39326;42.650;23.248;2022-08-25T06:01:08;92486.81;;;19.92;77.53
53041;BME280;39326;42.650;23.248;2022-08-25T06:03:52;92500.72;;;20.03;77.05
53041;BME280;39326;42.650;23.248;2022-08-25T06:06:20;92489.31;;;20.08;76.77
53041;BME280;39326;42.650;23.248;2022-08-25T06:08:46;92493.38;;;20.13;76.73
53041;BME280;39326;42.650;23.248;2022-08-25T06:11:13;92491.13;;;20.11;76.46
53041;BME280;39326;42.650;23.248;2022-08-25T06:13:40;92494.13;;;20.13;76.65
53041;BME280;39326;42.650;23.248;2022-08-25T06:16:05;92492.59;;;20.03;76.60
53041;BME280;39326;42.650;23.248;2022-08-25T06:18:31;92493.53;;;20.09;75.64
53041;BME280;39326;42.650;23.248;2022-08-25T06:20:56;92504.84;;;20.17;76.01
53041;BME280;39326;42.650;23.248;2022-08-25T06:23:22;92501.69;;;20.18;75.97
53041;BME280;39326;42.650;23.248;2022-08-25T06:25:49;92487.56;;;20.23;75.43
53041;BME280;39326;42.650;23.248;2022-08-25T06:28:15;92492.72;;;20.31;75.32
53041;BME280;39326;42.650;23.248;2022-08-25T06:30:40;92490.78;;;20.31;75.07
53041;BME280;39326;42.650;23.248;2022-08-25T06:33:06;92491.88;;;20.43;74.99
53041;BME280;39326;42.650;23.248;2022-08-25T06:35:31;92490.38;;;20.51;75.09
53041;BME280;39326;42.650;23.248;2022-08-25T06:37:57;92497.47;;;20.58;74.77
53041;BME280;39326;42.650;23.248;2022-08-25T06:40:22;92479.88;;;20.53;74.40
53041;BME280;39326;42.650;23.248;2022-08-25T06:42:49;92484.84;;;20.64;74.19
53041;BME280;39326;42.650;23.248;2022-08-25T06:45:14;92481.88;;;20.80;74.46
53041;BME280;39326;42.650;23.248;2022-08-25T06:47:40;92477.84;;;20.85;73.09
53041;BME280;39326;42.650;23.248;2022-08-25T06:50:05;92490.31;;;20.82;72.99
53041;BME280;39326;42.650;23.248;2022-08-25T06:52:31;92491.97;;;20.79;72.92
53041;BME280;39326;42.650;23.248;2022-08-25T06:54:57;92493.34;;;20.93;72.62
53041;BME280;39326;42.650;23.248;2022-08-25T06:57:22;92499.88;;;21.14;72.88
53041;BME280;39326;42.650;23.248;2022-08-25T06:59:48;92496.28;;;21.08;72.08
53041;BME280;39326;42.650;23.248;2022-08-25T07:02:13;92492.06;;;21.25;72.23
53041;BME280;39326;42.650;23.248;2022-08-25T07:04:39;92494.03;;;21.25;71.61
53041;BME280;39326;42.650;23.248;2022-08-25T07:07:04;92491.16;;;21.19;71.68
53041;BME280;39326;42.650;23.248;2022-08-25T07:09:30;92484.09;;;21.40;71.24
53041;BME280;39326;42.650;23.248;2022-08-25T07:11:55;92489.50;;;21.31;71.25
53041;BME280;39326;42.650;23.248;2022-08-25T07:14:21;92497.50;;;21.44;71.66
53041;BME280;39326;42.650;23.248;2022-08-25T07:16:47;92494.00;;;21.61;71.86
53041;BME280;39326;42.650;23.248;2022-08-25T07:19:13;92484.63;;;21.81;71.22
53041;BME280;39326;42.650;23.248;2022-08-25T07:21:40;92495.66;;;21.77;69.96
53041;BME280;39326;42.650;23.248;2022-08-25T07:24:08;92488.13;;;21.72;69.94
53041;BME280;39326;42.650;23.248;2022-08-25T07:26:35;92493.38;;;21.94;70.18
53041;BME280;39326;42.650;23.248;2022-08-25T07:29:04;92495.28;;;22.12;69.68
53041;BME280;39326;42.650;23.248;2022-08-25T07:31:30;92493.00;;;22.20;69.84
53041;BME280;39326;42.650;23.248;2022-08-25T07:33:56;92488.63;;;22.22;68.69
53041;BME280;39326;42.650;23.248;2022-08-25T07:36:40;92487.84;;;22.31;68.47
53041;BME280;39326;42.650;23.248;2022-08-25T07:39:07;92485.47;;;22.57;67.33
53041;BME280;39326;42.650;23.248;2022-08-25T07:41:35;92483.06;;;22.50;68.36
53041;BME280;39326;42.650;23.248;2022-08-25T07:44:02;92488.22;;;22.48;67.94
53041;BME280;39326;42.650;23.248;2022-08-25T07:46:28;92486.97;;;22.58;67.10
53041;BME280;39326;42.650;23.248;2022-08-25T07:48:54;92490.69;;;22.79;67.12
53041;BME280;39326;42.650;23.248;2022-08-25T07:51:19;92489.84;;;22.87;67.79
53041;BME280;39326;42.650;23.248;2022-08-25T07:53:45;92488.47;;;22.68;66.40
53041;BME280;39326;42.650;23.248;2022-08-25T07:56:12;92494.19;;;22.70;66.21
53041;BME280;39326;42.650;23.248;2022-08-25T07:58:39;92491.31;;;22.74;65.70
53041;BME280;39326;42.650;23.248;2022-08-25T08:01:06;92485.00;;;22.58;66.93
53041;BME280;39326;42.650;23.248;2022-08-25T08:03:31;92482.06;;;22.38;66.17
53041;BME280;39326;42.650;23.248;2022-08-25T08:06:00;92487.38;;;22.32;66.05
53041;BME280;39326;42.650;23.248;2022-08-25T08:08:26;92486.06;;;22.28;66.74
53041;BME280;39326;42.650;23.248;2022-08-25T08:10:52;92477.44;;;22.29;66.60
53041;BME280;39326;42.650;23.248;2022-08-25T08:13:18;92486.13;;;22.42;66.39
53041;BME280;39326;42.650;23.248;2022-08-25T08:15:45;92484.09;;;22.61;66.40
53041;BME280;39326;42.650;23.248;2022-08-25T08:18:10;92486.13;;;22.42;66.07
53041;BME280;39326;42.650;23.248;2022-08-25T08:20:36;92476.34;;;22.36;65.21
53041;BME280;39326;42.650;23.248;2022-08-25T08:23:02;92472.41;;;22.37;65.95
53041;BME280;39326;42.650;23.248;2022-08-25T08:25:28;92469.28;;;22.29;65.56
53041;BME280;39326;42.650;23.248;2022-08-25T08:27:55;92465.19;;;22.67;65.41
53041;BME280;39326;42.650;23.248;2022-08-25T08:30:22;92456.06;;;23.03;64.93
53041;BME280;39326;42.650;23.248;2022-08-25T08:32:47;92457.97;;;23.36;64.93
53041;BME280;39326;42.650;23.248;2022-08-25T08:35:15;92465.00;;;23.42;64.50
53041;BME280;39326;42.650;23.248;2022-08-25T08:37:44;92461.50;;;23.27;64.73
53041;BME280;39326;42.650;23.248;2022-08-25T08:40:11;92460.16;;;23.22;64.69
53041;BME280;39326;42.650;23.248;2022-08-25T08:45:32;92472.72;;;22.96;64.02
53041;BME280;39326;42.650;23.248;2022-08-25T08:53:41;92469.41;;;22.68;63.98
53041;BME280;39326;42.650;23.248;2022-08-25T08:56:13;92467.94;;;22.91;66.23
53041;BME280;39326;42.650;23.248;2022-08-25T08:58:55;92464.75;;;22.92;63.49
53041;BME280;39326;42.650;23.248;2022-08-25T09:01:57;92457.84;;;23.06;64.97
53041;BME280;39326;42.650;23.248;2022-08-25T09:07:13;92472.22;;;23.45;63.27
53041;BME280;39326;42.650;23.248;2022-08-25T09:09:41;92468.75;;;23.45;62.61
53041;BME280;39326;42.650;23.248;2022-08-25T09:15:07;92458.38;;;23.88;59.21
53041;BME280;39326;42.650;23.248;2022-08-25T09:17:58;92456.16;;;24.01;61.42
53041;BME280;39326;42.650;23.248;2022-08-25T09:25:59;92456.31;;;24.27;57.90
53041;BME280;39326;42.650;23.248;2022-08-25T09:28:40;92454.91;;;24.32;58.88
53041;BME280;39326;42.650;23.248;2022-08-25T09:33:44;92454.56;;;23.94;58.79
53041;BME280;39326;42.650;23.248;2022-08-25T09:36:10;92460.19;;;23.91;59.68
53041;BME280;39326;42.650;23.248;2022-08-25T09:38:35;92457.13;;;23.59;59.27
53041;BME280;39326;42.650;23.248;2022-08-25T09:41:01;92450.38;;;23.55;59.00
53041;BME280;39326;42.650;23.248;2022-08-25T09:43:36;92445.53;;;23.73;59.19
53041;BME280;39326;42.650;23.248;2022-08-25T09:48:54;92442.03;;;23.88;55.83
53041;BME280;39326;42.650;23.248;2022-08-25T09:51:23;92438.84;;;23.89;56.98
53041;BME280;39326;42.650;23.248;2022-08-25T09:56:23;92449.53;;;23.63;58.71
53041;BME280;39326;42.650;23.248;2022-08-25T09:58:50;92454.72;;;23.76;58.80
53041;BME280;39326;42.650;23.248;2022-08-25T10:01:17;92450.50;;;23.75;59.30
53041;BME280;39326;42.650;23.248;2022-08-25T10:04:03;92450.75;;;23.47;58.55
53041;BME280;39326;42.650;23.248;2022-08-25T10:06:43;92452.91;;;23.43;58.80
53041;BME280;39326;42.650;23.248;2022-08-25T10:09:21;92448.69;;;23.42;58.07
53041;BME280;39326;42.650;23.248;2022-08-25T10:11:47;92442.94;;;23.40;56.62
53041;BME280;39326;42.650;23.248;2022-08-25T10:16:45;92447.00;;;23.74;56.89
53041;BME280;39326;42.650;23.248;2022-08-25T10:22:33;92443.53;;;23.89;54.20
53041;BME280;39326;42.650;23.248;2022-08-25T10:24:59;92444.84;;;23.64;54.37
53041;BME280;39326;42.650;23.248;2022-08-25T10:30:21;92436.91;;;24.40;53.87
53041;BME280;39326;42.650;23.248;2022-08-25T10:35:25;92430.81;;;24.80;51.41
53041;BME280;39326;42.650;23.248;2022-08-25T10:38:04;92425.44;;;25.06;51.26
53041;BME280;39326;42.650;23.248;2022-08-25T10:45:36;92419.63;;;24.98;50.78
53041;BME280;39326;42.650;23.248;2022-08-25T10:50:49;92420.53;;;25.30;49.53
53041;BME280;39326;42.650;23.248;2022-08-25T10:53:53;92407.19;;;24.97;47.59
53041;BME280;39326;42.650;23.248;2022-08-25T10:56:17;92420.09;;;24.97;47.71
53041;BME280;39326;42.650;23.248;2022-08-25T11:04:22;92411.59;;;25.30;46.17
53041;BME280;39326;42.650;23.248;2022-08-25T11:06:57;92419.56;;;25.13;47.34
53041;BME280;39326;42.650;23.248;2022-08-25T11:09:32;92410.56;;;24.51;48.05
53041;BME280;39326;42.650;23.248;2022-08-25T11:12:06;92409.06;;;24.50;48.35
53041;BME280;39326;42.650;23.248;2022-08-25T11:14:40;92400.97;;;24.56;49.13
53041;BME280;39326;42.650;23.248;2022-08-25T11:17:42;92398.75;;;24.95;50.51
53041;BME280;39326;42.650;23.248;2022-08-25T11:20:15;92398.16;;;24.86;49.06
53041;BME280;39326;42.650;23.248;2022-08-25T11:22:51;92401.47;;;24.75;49.27
53041;BME280;39326;42.650;23.248;2022-08-25T11:25:26;92396.16;;;25.06;48.93
53041;BME280;39326;42.650;23.248;2022-08-25T11:27:58;92387.06;;;25.35;49.20
53041;BME280;39326;42.650;23.248;2022-08-25T11:30:24;92381.28;;;25.85;48.58
53041;BME280;39326;42.650;23.248;2022-08-25T11:32:52;92392.03;;;25.63;47.57
53041;BME280;39326;42.650;23.248;2022-08-25T11:35:26;92379.44;;;25.71;47.64
53041;BME280;39326;42.650;23.248;2022-08-25T11:38:05;92373.97;;;25.71;47.72
53041;BME280;39326;42.650;23.248;2022-08-25T11:40:43;92376.13;;;25.61;48.58
53041;BME280;39326;42.650;23.248;2022-08-25T11:46:26;92371.09;;;25.80;46.81
53041;BME280;39326;42.650;23.248;2022-08-25T11:49:26;92372.75;;;26.04;47.66
53041;BME280;39326;42.650;23.248;2022-08-25T11:51:57;92370.59;;;26.13;46.34
53041;BME280;39326;42.650;23.248;2022-08-25T11:54:43;92364.09;;;26.05;46.51
53041;BME280;39326;42.650;23.248;2022-08-25T11:57:28;92361.94;;;25.57;46.48
53041;BME280;39326;42.650;23.248;2022-08-25T12:00:03;92369.38;;;25.57;48.22
53041;BME280;39326;42.650;23.248;2022-08-25T12:02:46;92361.00;;;25.66;47.51
53041;BME280;39326;42.650;23.248;2022-08-25T12:15:32;92360.25;;;25.66;47.85
53041;BME280;39326;42.650;23.248;2022-08-25T12:23:27;92357.22;;;26.21;44.10
53041;BME280;39326;42.650;23.248;2022-08-25T12:25:54;92357.69;;;26.14;44.78
53041;BME280;39326;42.650;23.248;2022-08-25T12:30:57;92359.03;;;25.98;45.30
53041;BME280;39326;42.650;23.248;2022-08-25T12:33:52;92355.31;;;25.96;45.07
53041;BME280;39326;42.650;23.248;2022-08-25T12:36:31;92349.63;;;25.99;44.71
53041;BME280;39326;42.650;23.248;2022-08-25T12:39:30;92359.13;;;25.78;46.49
53041;BME280;39326;42.650;23.248;2022-08-25T12:42:03;92360.94;;;25.55;46.07
53041;BME280;39326;42.650;23.248;2022-08-25T12:44:40;92360.66;;;25.27;46.55
53041;BME280;39326;42.650;23.248;2022-08-25T12:49:44;92357.41;;;24.82;47.40
53041;BME280;39326;42.650;23.248;2022-08-25T12:52:19;92359.72;;;24.89;47.98
53041;BME280;39326;42.650;23.248;2022-08-25T13:00:02;92365.53;;;24.76;47.78
53041;BME280;39326;42.650;23.248;2022-08-25T13:08:21;92358.59;;;25.22;47.34
53041;BME280;39326;42.650;23.248;2022-08-25T13:16:23;92359.13;;;24.79;46.73
53041;BME280;39326;42.650;23.248;2022-08-25T13:18:51;92366.22;;;24.92;47.23
53041;BME280;39326;42.650;23.248;2022-08-25T13:21:23;92360.72;;;25.12;47.69
53041;BME280;39326;42.650;23.248;2022-08-25T13:23:54;92360.13;;;25.02;46.93
53041;BME280;39326;42.650;23.248;2022-08-25T13:28:57;92362.88;;;24.82;47.51
53041;BME280;39326;42.650;23.248;2022-08-25T13:31:24;92356.09;;;24.37;46.86
53041;BME280;39326;42.650;23.248;2022-08-25T13:33:56;92363.28;;;24.40;47.65
53041;BME280;39326;42.650;23.248;2022-08-25T13:36:24;92357.59;;;24.58;46.84
53041;BME280;39326;42.650;23.248;2022-08-25T13:39:15;92368.84;;;24.66;46.24
53041;BME280;39326;42.650;23.248;2022-08-25T13:41:55;92365.88;;;24.84;47.12
53041;BME280;39326;42.650;23.248;2022-08-25T13:44:25;92369.13;;;25.08;46.50
53041;BME280;39326;42.650;23.248;2022-08-25T13:49:33;92355.69;;;25.05;47.16
53041;BME280;39326;42.650;23.248;2022-08-25T13:51:59;92352.06;;;25.14;46.05
53041;BME280;39326;42.650;23.248;2022-08-25T13:54:40;92347.13;;;25.70;46.05
53041;BME280;39326;42.650;23.248;2022-08-25T13:57:20;92347.69;;;25.74;44.82
53041;BME280;39326;42.650;23.248;2022-08-25T13:59:53;92352.00;;;25.54;45.32
53041;BME280;39326;42.650;23.248;2022-08-25T14:02:46;92351.19;;;25.48;45.42
53041;BME280;39326;42.650;23.248;2022-08-25T14:05:13;92355.78;;;25.16;45.71
53041;BME280;39326;42.650;23.248;2022-08-25T14:07:52;92354.13;;;24.78;45.50
53041;BME280;39326;42.650;23.248;2022-08-25T14:10:40;92361.13;;;24.79;46.16
53041;BME280;39326;42.650;23.248;2022-08-25T14:15:36;92355.22;;;24.66;46.38
53041;BME280;39326;42.650;23.248;2022-08-25T14:18:22;92361.69;;;24.89;46.14
53041;BME280;39326;42.650;23.248;2022-08-25T14:20:53;92366.38;;;25.29;46.27
53041;BME280;39326;42.650;23.248;2022-08-25T14:23:23;92354.56;;;25.38;45.46
53041;BME280;39326;42.650;23.248;2022-08-25T14:25:52;92350.81;;;25.61;44.45
53041;BME280;39326;42.650;23.248;2022-08-25T14:28:20;92362.25;;;25.39;44.53
53041;BME280;39326;42.650;23.248;2022-08-25T14:31:04;92360.16;;;25.28;44.56
53041;BME280;39326;42.650;23.248;2022-08-25T14:33:34;92357.34;;;25.23;45.46
53041;BME280;39326;42.650;23.248;2022-08-25T14:36:01;92356.44;;;25.26;45.63
53041;BME280;39326;42.650;23.248;2022-08-25T14:38:29;92350.22;;;25.25;45.91
53041;BME280;39326;42.650;23.248;2022-08-25T14:40:55;92354.88;;;24.99;45.92
53041;BME280;39326;42.650;23.248;2022-08-25T14:43:20;92355.25;;;24.86;46.11
53041;BME280;39326;42.650;23.248;2022-08-25T14:45:47;92354.19;;;24.83;45.92
53041;BME280;39326;42.650;23.248;2022-08-25T14:48:27;92355.50;;;24.88;46.23
53041;BME280;39326;42.650;23.248;2022-08-25T14:50:55;92353.19;;;24.61;45.63